createdAt,value
2022-10-29T00:01:01.525Z,87.66
2022-10-29T00:03:03.043Z,86.89
2022-10-29T00:05:04.833Z,87.18
2022-10-29T00:07:06.528Z,87.05
2022-10-29T00:09:08.011Z,86.27
2022-10-29T00:11:13.199Z,85.72
2022-10-29T00:13:14.992Z,85.70
2022-10-29T00:15:16.935Z,86.14
2022-10-29T00:17:18.362Z,86.61
2022-10-29T00:19:20.206Z,87.33
2022-10-29T00:21:24.633Z,87.70
2022-10-29T00:23:32.227Z,88.49
2022-10-29T00:25:33.715Z,88.82
2022-10-29T00:27:35.154Z,88.91
2022-10-29T00:29:36.589Z,88.59
2022-10-29T00:31:38.099Z,88.08
2022-10-29T00:33:39.904Z,87.59
2022-10-29T00:35:41.341Z,88.27
2022-10-29T00:37:42.810Z,88.15
2022-10-29T00:39:44.232Z,87.79
2022-10-29T00:41:45.707Z,88.21
2022-10-29T00:43:52.174Z,88.48
2022-10-29T00:46:01.387Z,88.78
2022-10-29T00:48:02.939Z,89.07
2022-10-29T00:50:11.279Z,89.59
2022-10-29T00:52:14.775Z,89.95
2022-10-29T00:54:16.926Z,89.31
2022-10-29T00:56:18.651Z,89.51
2022-10-29T00:58:21.733Z,89.38
2022-10-29T01:00:23.294Z,87.97
2022-10-29T01:02:25.894Z,87.67
2022-10-29T01:04:27.740Z,87.44
2022-10-29T01:06:30.956Z,88.10
2022-10-29T01:08:32.463Z,88.70
2022-10-29T01:11:00.038Z,89.05
2022-10-29T01:13:30.633Z,89.24
2022-10-29T01:16:13.662Z,89.40
2022-10-29T01:18:29.534Z,89.41
2022-10-29T01:20:49.299Z,88.70
2022-10-29T01:22:59.043Z,88.28
2022-10-29T01:25:36.014Z,88.11
2022-10-29T01:28:16.173Z,87.67
2022-10-29T01:30:50.301Z,87.18
2022-10-29T01:33:06.595Z,87.21
2022-10-29T01:35:17.893Z,87.15
2022-10-29T01:37:50.190Z,86.80
2022-10-29T01:40:05.707Z,86.31
2022-10-29T01:42:16.998Z,86.29
2022-10-29T01:44:29.218Z,85.96
2022-10-29T01:46:42.809Z,86.17
2022-10-29T01:48:48.324Z,85.71
2022-10-29T01:50:54.709Z,85.57
2022-10-29T01:52:57.620Z,85.63
2022-10-29T01:54:59.174Z,85.50
2022-10-29T01:57:01.043Z,85.35
2022-10-29T01:59:06.898Z,85.43
2022-10-29T02:01:14.384Z,85.27
2022-10-29T02:03:41.859Z,85.11
2022-10-29T02:06:05.814Z,84.70
2022-10-29T02:08:25.150Z,84.78
2022-10-29T02:10:33.913Z,85.04
2022-10-29T02:12:48.696Z,85.16
2022-10-29T02:15:00.412Z,85.40
2022-10-29T02:17:02.480Z,85.32
2022-10-29T02:19:05.724Z,85.23
2022-10-29T02:21:07.212Z,85.13
2022-10-29T02:23:09.253Z,85.20
2022-10-29T02:25:11.398Z,85.19
2022-10-29T02:27:12.923Z,85.26
2022-10-29T02:29:14.391Z,85.48
2022-10-29T02:31:15.902Z,85.88
2022-10-29T02:33:17.350Z,86.51
2022-10-29T02:35:18.818Z,87.29
2022-10-29T02:37:20.261Z,87.80
2022-10-29T02:39:21.785Z,88.03
2022-10-29T02:41:23.215Z,88.03
2022-10-29T02:43:24.647Z,87.62
2022-10-29T02:45:26.106Z,87.68
2022-10-29T02:47:28.129Z,87.10
2022-10-29T02:49:29.715Z,87.12
2022-10-29T02:51:31.167Z,86.64
2022-10-29T02:53:32.610Z,86.35
2022-10-29T02:55:34.058Z,86.35
2022-10-29T02:57:35.492Z,86.42
2022-10-29T02:59:36.963Z,86.14
2022-10-29T03:01:38.467Z,86.22
2022-10-29T03:03:39.968Z,86.25
2022-10-29T03:05:45.125Z,86.36
2022-10-29T03:07:48.034Z,85.99
2022-10-29T03:09:49.583Z,86.29
2022-10-29T03:11:51.022Z,86.03
2022-10-29T03:13:52.470Z,85.83
2022-10-29T03:15:54.096Z,85.58
2022-10-29T03:17:56.032Z,85.59
2022-10-29T03:19:57.611Z,85.86
2022-10-29T03:21:59.052Z,85.78
2022-10-29T03:24:00.686Z,85.65
2022-10-29T03:26:02.270Z,85.51
2022-10-29T03:28:03.805Z,85.82
2022-10-29T03:30:05.850Z,85.81
2022-10-29T03:32:07.361Z,85.84
2022-10-29T03:34:08.785Z,86.13
2022-10-29T03:36:10.381Z,86.92
2022-10-29T03:38:11.924Z,86.88
2022-10-29T03:40:13.452Z,86.72
2022-10-29T03:42:14.876Z,86.25
2022-10-29T03:44:16.318Z,86.38
2022-10-29T03:46:17.780Z,86.02
2022-10-29T03:48:19.685Z,86.34
2022-10-29T03:50:21.172Z,86.33
2022-10-29T03:52:22.635Z,86.41
2022-10-29T03:54:24.141Z,86.16
2022-10-29T03:56:25.579Z,86.03
2022-10-29T03:58:27.696Z,86.46
2022-10-29T04:00:29.160Z,86.44
2022-10-29T04:02:30.906Z,86.04
2022-10-29T04:04:32.472Z,86.15
2022-10-29T04:06:33.953Z,86.20
2022-10-29T04:08:35.428Z,86.28
2022-10-29T04:10:36.859Z,86.38
2022-10-29T04:12:38.290Z,86.50
2022-10-29T04:14:44.477Z,86.34
2022-10-29T04:16:47.104Z,85.94
2022-10-29T04:18:49.670Z,86.18
2022-10-29T04:27:07.989Z,86.31
2022-10-29T04:30:17.702Z,85.99
2022-10-29T04:32:19.131Z,86.30
2022-10-29T04:34:20.802Z,86.17
2022-10-29T04:36:22.258Z,86.18
2022-10-29T04:38:23.755Z,86.19
2022-10-29T04:40:25.733Z,86.17
2022-10-29T04:42:27.154Z,85.93
2022-10-29T04:44:28.644Z,86.10
2022-10-29T04:46:30.100Z,85.81
2022-10-29T04:48:31.520Z,86.19
2022-10-29T04:50:34.299Z,86.21
2022-10-29T04:52:35.763Z,86.15
2022-10-29T04:54:37.194Z,86.35
2022-10-29T04:56:38.621Z,86.09
2022-10-29T04:58:40.053Z,85.76
2022-10-29T05:00:43.586Z,85.90
2022-10-29T05:02:49.842Z,86.17
2022-10-29T05:04:51.295Z,85.99
2022-10-29T05:06:52.734Z,86.21
2022-10-29T05:08:54.195Z,86.25
2022-10-29T05:10:55.690Z,86.25
2022-10-29T05:13:01.883Z,86.34
2022-10-29T05:15:04.422Z,86.34
2022-10-29T05:19:12.200Z,86.13
2022-10-29T05:21:13.920Z,86.43
2022-10-29T05:23:15.416Z,86.19
2022-10-29T05:25:17.036Z,86.11
2022-10-29T05:27:18.495Z,86.18
2022-10-29T05:29:19.940Z,86.31
2022-10-29T05:31:21.428Z,86.65
2022-10-29T05:33:24.673Z,86.55
2022-10-29T05:35:26.580Z,86.24
2022-10-29T05:37:28.003Z,86.07
2022-10-29T05:39:29.461Z,86.35
2022-10-29T05:41:30.896Z,86.19
2022-10-29T05:43:32.363Z,85.91
2022-10-29T05:45:34.616Z,86.15
2022-10-29T05:47:36.127Z,85.86
2022-10-29T05:49:37.581Z,86.19
2022-10-29T05:51:39.037Z,86.14
2022-10-29T05:53:40.443Z,86.14
2022-10-29T05:55:42.539Z,85.92
2022-10-29T05:57:43.968Z,85.82
2022-10-29T05:59:45.433Z,86.13
2022-10-29T06:01:47.021Z,86.13
2022-10-29T06:03:48.688Z,85.78
2022-10-29T06:05:50.552Z,85.94
2022-10-29T06:07:57.339Z,86.11
2022-10-29T06:09:58.975Z,86.95
2022-10-29T06:12:00.421Z,86.91
2022-10-29T06:14:01.840Z,87.72
2022-10-29T06:16:03.383Z,88.79
2022-10-29T06:18:05.062Z,88.67
2022-10-29T06:20:07.720Z,88.26
2022-10-29T06:22:09.241Z,87.88
2022-10-29T06:24:10.814Z,87.83
2022-10-29T06:26:12.240Z,87.29
2022-10-29T06:28:15.384Z,86.78
2022-10-29T06:30:17.041Z,86.81
2022-10-29T06:32:18.481Z,86.79
2022-10-29T06:34:19.951Z,86.56
2022-10-29T06:36:21.495Z,86.79
2022-10-29T06:38:22.916Z,86.56
2022-10-29T06:40:24.478Z,86.79
2022-10-29T06:42:25.936Z,86.99
2022-10-29T06:44:27.395Z,87.89
2022-10-29T06:46:28.830Z,88.43
2022-10-29T06:48:30.318Z,88.65
2022-10-29T06:50:32.385Z,88.29
2022-10-29T06:52:34.439Z,87.92
2022-10-29T06:54:35.901Z,87.66
2022-10-29T06:56:37.412Z,87.67
2022-10-29T06:58:38.874Z,87.58
2022-10-29T07:00:41.654Z,87.70
2022-10-29T07:02:46.209Z,87.63
2022-10-29T07:04:47.805Z,86.80
2022-10-29T07:06:49.248Z,87.11
2022-10-29T07:08:50.729Z,87.17
2022-10-29T07:10:53.553Z,87.07
2022-10-29T07:12:55.230Z,87.17
2022-10-29T07:14:56.719Z,87.21
2022-10-29T07:16:58.134Z,86.87
2022-10-29T07:18:59.647Z,86.00
2022-10-29T07:21:03.740Z,85.72
2022-10-29T07:23:05.899Z,85.93
2022-10-29T07:25:07.809Z,85.71
2022-10-29T07:27:09.409Z,85.32
2022-10-29T07:29:11.016Z,84.79
2022-10-29T07:31:12.466Z,85.21
2022-10-29T07:33:14.768Z,84.66
2022-10-29T07:35:16.339Z,84.45
2022-10-29T07:37:17.773Z,84.45
2022-10-29T07:39:19.297Z,84.90
2022-10-29T07:41:20.730Z,86.59
2022-10-29T07:43:22.759Z,89.66
2022-10-29T07:45:24.725Z,89.04
2022-10-29T07:47:26.135Z,87.60
2022-10-29T07:49:27.606Z,86.69
2022-10-29T07:51:29.063Z,87.03
2022-10-29T07:53:33.317Z,87.75
2022-10-29T07:55:35.421Z,88.46
2022-10-29T07:57:36.914Z,87.28
2022-10-29T07:59:38.334Z,87.23
2022-10-29T08:01:40.277Z,86.26
2022-10-29T08:03:41.774Z,85.20
2022-10-29T08:05:43.768Z,84.89
2022-10-29T08:07:45.237Z,85.07
2022-10-29T08:09:46.695Z,86.20
2022-10-29T08:13:54.554Z,84.65
2022-10-29T08:15:56.433Z,87.13
2022-10-29T08:17:58.400Z,87.74
2022-10-29T08:19:59.837Z,89.87
2022-10-29T08:22:01.363Z,91.35
2022-10-29T08:24:02.889Z,92.13
2022-10-29T08:26:04.378Z,93.32
2022-10-29T08:28:05.889Z,94.73
2022-10-29T08:30:09.172Z,94.82
2022-10-29T08:32:10.633Z,95.59
2022-10-29T08:34:12.141Z,95.74
2022-10-29T08:36:13.648Z,96.13
2022-10-29T08:38:15.325Z,95.80
2022-10-29T08:40:39.548Z,96.06
2022-10-29T08:42:55.186Z,95.81
2022-10-29T08:44:59.559Z,96.30
2022-10-29T08:47:21.190Z,96.07
2022-10-29T08:49:25.626Z,95.91
2022-10-29T08:51:38.742Z,95.44
2022-10-29T08:53:54.315Z,93.58
2022-10-29T08:56:16.070Z,93.09
2022-10-29T08:58:27.947Z,93.46
2022-10-29T09:00:35.278Z,94.02
2022-10-29T09:02:36.767Z,94.51
2022-10-29T09:04:38.349Z,94.14
2022-10-29T09:07:06.877Z,93.66
2022-10-29T09:09:31.473Z,92.72
2022-10-29T09:11:44.844Z,91.39
2022-10-29T09:13:49.213Z,92.54
2022-10-29T09:16:12.475Z,91.69
2022-10-29T09:18:13.882Z,91.96
2022-10-29T09:20:51.008Z,92.73
2022-10-29T09:23:18.721Z,93.10
2022-10-29T09:25:52.426Z,93.22
2022-10-29T09:28:06.513Z,92.59
2022-10-29T09:30:20.869Z,92.17
2022-10-29T09:32:27.161Z,92.19
2022-10-29T09:34:43.676Z,93.18
2022-10-29T09:36:47.251Z,93.54
2022-10-29T09:38:59.946Z,92.36
2022-10-29T09:41:03.817Z,92.91
2022-10-29T09:43:15.493Z,92.16
2022-10-29T09:45:22.420Z,91.91
2022-10-29T09:47:32.897Z,92.24
2022-10-29T09:50:09.787Z,92.01
2022-10-29T09:52:20.838Z,91.21
2022-10-29T09:54:25.357Z,88.82
2022-10-29T09:56:26.870Z,87.89
2022-10-29T09:58:28.650Z,87.77
2022-10-29T10:00:31.626Z,88.12
2022-10-29T10:02:55.396Z,88.82
2022-10-29T10:05:04.764Z,88.83
2022-10-29T10:07:09.180Z,89.75
2022-10-29T10:09:10.641Z,90.48
2022-10-29T10:11:19.922Z,90.85
2022-10-29T10:13:29.047Z,90.66
2022-10-29T10:15:33.799Z,90.13
2022-10-29T10:17:55.904Z,89.78
2022-10-29T10:19:57.721Z,89.39
2022-10-29T10:22:01.436Z,89.72
2022-10-29T10:24:02.887Z,89.32
2022-10-29T10:26:05.551Z,88.95
2022-10-29T10:28:18.007Z,89.25
2022-10-29T10:30:22.887Z,89.35
2022-10-29T10:32:25.688Z,88.99
2022-10-29T10:34:37.959Z,88.56
2022-10-29T10:36:43.116Z,89.00
2022-10-29T10:38:50.882Z,87.81
2022-10-29T10:41:05.381Z,86.88
2022-10-29T10:43:08.907Z,86.82
2022-10-29T10:45:25.548Z,86.75
2022-10-29T10:47:30.839Z,86.33
2022-10-29T10:49:36.404Z,80.67
2022-10-29T10:51:42.605Z,79.12
2022-10-29T10:53:44.334Z,79.97
2022-10-29T10:55:50.991Z,80.35
2022-10-29T10:58:12.396Z,80.42
2022-10-29T11:00:18.785Z,80.95
2022-10-29T11:02:37.840Z,80.11
2022-10-29T11:04:41.267Z,79.79
2022-10-29T11:06:47.930Z,80.55
2022-10-29T11:09:07.196Z,79.64
2022-10-29T11:11:15.832Z,78.21
2022-10-29T11:13:20.741Z,77.53
2022-10-29T11:15:36.097Z,76.03
2022-10-29T11:17:53.878Z,75.78
2022-10-29T11:20:03.271Z,76.49
2022-10-29T11:22:16.591Z,77.00
2022-10-29T11:25:15.699Z,78.05
2022-10-29T11:27:26.085Z,78.46
2022-10-29T11:29:57.291Z,78.79
2022-10-29T11:32:10.159Z,78.85
2022-10-29T11:34:21.236Z,79.04
2022-10-29T11:36:24.122Z,79.38
2022-10-29T11:38:34.074Z,79.63
2022-10-29T11:40:35.532Z,79.89
2022-10-29T11:42:39.246Z,80.21
2022-10-29T11:44:41.552Z,80.62
2022-10-29T11:46:49.107Z,80.73
2022-10-29T11:49:29.357Z,80.97
2022-10-29T11:51:39.485Z,81.03
2022-10-29T11:54:06.206Z,81.16
2022-10-29T11:56:18.721Z,81.14
2022-10-29T11:58:34.233Z,81.13
2022-10-29T12:01:05.930Z,81.12
2022-10-29T12:03:46.986Z,81.02
2022-10-29T12:06:09.940Z,80.92
2022-10-29T12:08:48.491Z,81.13
2022-10-29T12:11:31.462Z,80.56
2022-10-29T12:13:37.875Z,80.47
2022-10-29T12:15:41.964Z,80.61
2022-10-29T12:18:06.183Z,80.52
2022-10-29T12:20:23.492Z,80.63
2022-10-29T12:22:33.729Z,80.65
2022-10-29T12:24:58.737Z,80.33
2022-10-29T12:27:14.501Z,80.70
2022-10-29T12:29:33.861Z,79.76
2022-10-29T12:31:51.809Z,80.12
2022-10-29T12:34:11.322Z,80.01
2022-10-29T12:36:31.471Z,79.65
2022-10-29T12:38:48.814Z,79.77
2022-10-29T12:40:58.802Z,79.92
2022-10-29T12:43:11.058Z,79.87
2022-10-29T12:46:19.020Z,79.46
2022-10-29T12:48:37.059Z,78.10
2022-10-29T12:50:58.144Z,78.52
2022-10-29T12:53:14.780Z,79.49
2022-10-29T12:55:17.597Z,79.83
2022-10-29T12:57:28.736Z,80.16
2022-10-29T12:59:35.057Z,80.29
2022-10-29T13:02:05.798Z,80.30
2022-10-29T13:04:02.343Z,80.57
2022-10-29T13:06:41.790Z,80.73
2022-10-29T13:08:56.083Z,80.25
2022-10-29T13:10:57.652Z,79.71
2022-10-29T13:12:59.026Z,78.34
2022-10-29T13:15:09.124Z,77.58
2022-10-29T13:17:25.850Z,77.31
2022-10-29T13:19:59.448Z,76.51
2022-10-29T13:22:25.088Z,77.00
2022-10-29T13:24:28.310Z,77.67
2022-10-29T13:26:53.728Z,78.42
2022-10-29T13:28:55.244Z,79.09
2022-10-29T13:30:59.452Z,79.40
2022-10-29T13:33:01.231Z,79.28
2022-10-29T13:35:24.668Z,79.37
2022-10-29T13:37:38.039Z,79.35
2022-10-29T13:39:39.452Z,79.16
2022-10-29T13:41:50.106Z,78.70
2022-10-29T13:43:54.354Z,78.54
2022-10-29T13:46:13.957Z,77.76
2022-10-29T13:48:30.610Z,77.99
2022-10-29T13:50:34.672Z,78.01
2022-10-29T13:52:37.379Z,78.30
2022-10-29T13:54:56.338Z,78.07
2022-10-29T13:57:08.159Z,78.20
2022-10-29T13:59:19.549Z,78.26
2022-10-29T14:01:22.918Z,78.05
2022-10-29T14:03:35.770Z,77.83
2022-10-29T14:05:46.588Z,77.66
2022-10-29T14:08:15.347Z,77.36
2022-10-29T14:10:35.536Z,77.38
2022-10-29T14:12:38.288Z,77.99
2022-10-29T14:14:51.609Z,78.00
2022-10-29T14:17:15.659Z,78.02
2022-10-29T14:19:21.652Z,78.21
2022-10-29T14:21:25.792Z,77.94
2022-10-29T14:23:29.653Z,77.92
2022-10-29T14:25:34.510Z,78.16
2022-10-29T14:27:35.961Z,78.42
2022-10-29T14:29:38.374Z,78.65
2022-10-29T14:31:40.158Z,78.77
2022-10-29T14:33:43.552Z,78.90
2022-10-29T14:35:46.106Z,79.05
2022-10-29T14:37:48.786Z,78.98
2022-10-29T14:40:00.791Z,78.95
2022-10-29T14:42:02.657Z,79.12
2022-10-29T14:44:09.575Z,79.02
2022-10-29T14:46:19.245Z,79.20
2022-10-29T14:48:20.924Z,78.89
2022-10-29T14:50:25.405Z,78.86
2022-10-29T14:52:34.073Z,78.87
2022-10-29T14:54:39.830Z,78.73
2022-10-29T14:56:41.716Z,79.13
2022-10-29T14:58:43.208Z,79.25
2022-10-29T15:00:54.357Z,79.04
2022-10-29T15:02:57.174Z,79.36
2022-10-29T15:05:04.427Z,79.24
2022-10-29T15:07:16.023Z,79.50
2022-10-29T15:09:26.847Z,79.85
2022-10-29T15:11:33.017Z,80.04
2022-10-29T15:13:34.966Z,80.06
2022-10-29T15:15:36.999Z,80.19
2022-10-29T15:17:49.702Z,80.30
2022-10-29T15:19:58.268Z,80.26
2022-10-29T15:21:59.591Z,80.70
2022-10-29T15:24:07.803Z,80.98
2022-10-29T15:26:14.775Z,80.94
2022-10-29T15:28:29.169Z,81.24
2022-10-29T15:30:36.235Z,81.01
2022-10-29T15:32:37.755Z,80.86
2022-10-29T15:34:40.398Z,81.03
2022-10-29T15:36:53.106Z,81.24
2022-10-29T15:39:26.631Z,81.45
2022-10-29T15:41:37.461Z,81.38
2022-10-29T15:43:56.118Z,81.44
2022-10-29T15:45:58.179Z,81.65
2022-10-29T15:48:05.676Z,81.40
2022-10-29T15:50:10.998Z,81.68
2022-10-29T15:52:17.671Z,81.32
2022-10-29T15:54:19.297Z,81.63
2022-10-29T15:56:20.776Z,81.73
2022-10-29T15:58:23.278Z,81.67
2022-10-29T16:00:24.919Z,81.56
2022-10-29T16:02:26.551Z,81.74
2022-10-29T16:04:28.059Z,81.87
2022-10-29T16:06:30.315Z,83.01
2022-10-29T16:08:44.375Z,83.11
2022-10-29T16:10:45.940Z,83.24
2022-10-29T16:12:49.598Z,82.92
2022-10-29T16:14:51.039Z,83.02
2022-10-29T16:16:52.453Z,82.88
2022-10-29T16:18:54.490Z,82.81
2022-10-29T16:21:01.719Z,82.62
2022-10-29T16:23:03.373Z,82.99
2022-10-29T16:25:05.283Z,83.38
2022-10-29T16:27:14.817Z,83.43
2022-10-29T16:29:16.278Z,83.36
2022-10-29T16:31:23.911Z,83.36
2022-10-29T16:33:26.076Z,84.18
2022-10-29T16:35:29.875Z,84.57
2022-10-29T16:37:31.422Z,85.50
2022-10-29T16:39:32.853Z,84.96
2022-10-29T16:41:35.082Z,84.73
2022-10-29T16:43:36.503Z,84.37
2022-10-29T16:45:38.087Z,83.99
2022-10-29T16:47:39.649Z,83.95
2022-10-29T16:49:41.068Z,83.91
2022-10-29T16:51:42.713Z,83.73
2022-10-29T16:53:44.128Z,83.86
2022-10-29T16:55:45.590Z,83.71
2022-10-29T16:57:47.133Z,83.47
2022-10-29T16:59:48.670Z,83.30
2022-10-29T17:01:50.138Z,83.44
2022-10-29T17:03:52.268Z,83.77
2022-10-29T17:05:53.748Z,83.78
2022-10-29T17:07:55.845Z,84.29
2022-10-29T17:09:57.369Z,84.27
2022-10-29T17:11:58.886Z,84.35
2022-10-29T17:14:00.363Z,83.79
2022-10-29T17:16:14.670Z,83.55
2022-10-29T17:18:16.131Z,84.14
2022-10-29T17:20:17.761Z,84.10
2022-10-29T17:22:19.358Z,84.40
2022-10-29T17:24:20.801Z,84.52
2022-10-29T17:26:22.305Z,84.79
2022-10-29T17:28:25.527Z,85.04
2022-10-29T17:30:26.986Z,84.72
2022-10-29T17:32:32.490Z,84.60
2022-10-29T17:34:34.261Z,84.64
2022-10-29T17:36:40.816Z,84.54
2022-10-29T17:38:42.294Z,84.71
2022-10-29T17:40:46.062Z,84.67
2022-10-29T17:42:47.507Z,84.28
2022-10-29T17:44:48.934Z,84.35
2022-10-29T17:46:50.439Z,84.60
2022-10-29T17:48:56.244Z,84.29
2022-10-29T17:50:59.980Z,84.39
2022-10-29T17:53:01.697Z,84.60
2022-10-29T17:55:03.251Z,84.58
2022-10-29T17:57:04.711Z,84.08
2022-10-29T17:59:06.136Z,83.58
2022-10-29T18:01:10.495Z,83.42
2022-10-29T18:03:12.316Z,83.97
2022-10-29T18:05:13.851Z,84.16
2022-10-29T18:07:15.292Z,84.26
2022-10-29T18:09:20.280Z,84.24
2022-10-29T18:11:24.465Z,84.13
2022-10-29T18:13:25.871Z,84.18
2022-10-29T18:15:27.669Z,83.83
2022-10-29T18:17:29.204Z,83.84
2022-10-29T18:19:30.623Z,83.99
2022-10-29T18:21:32.626Z,84.12
2022-10-29T18:23:34.198Z,84.41
2022-10-29T18:25:35.643Z,84.63
2022-10-29T18:27:37.350Z,84.32
2022-10-29T18:29:38.765Z,84.33
2022-10-29T18:31:44.794Z,83.99
2022-10-29T18:33:46.941Z,84.02
2022-10-29T18:35:48.510Z,83.91
2022-10-29T18:37:49.959Z,83.94
2022-10-29T18:39:52.762Z,84.32
2022-10-29T18:41:54.284Z,84.11
2022-10-29T18:43:56.146Z,84.51
2022-10-29T18:45:59.239Z,84.94
2022-10-29T18:48:01.194Z,86.08
2022-10-29T18:50:03.053Z,86.17
2022-10-29T18:52:04.600Z,86.13
2022-10-29T18:54:06.126Z,86.30
2022-10-29T18:56:13.322Z,86.31
2022-10-29T18:58:14.756Z,85.78
2022-10-29T19:00:16.817Z,85.20
2022-10-29T19:02:18.380Z,85.02
2022-10-29T19:04:19.899Z,85.51
2022-10-29T19:06:23.003Z,85.93
2022-10-29T19:08:24.452Z,85.91
2022-10-29T19:10:25.887Z,85.85
2022-10-29T19:12:27.322Z,85.49
2022-10-29T19:14:28.799Z,85.34
2022-10-29T19:16:31.860Z,85.92
2022-10-29T19:18:34.175Z,85.95
2022-10-29T19:20:36.185Z,85.41
2022-10-29T19:22:37.602Z,85.57
2022-10-29T19:24:39.112Z,85.67
2022-10-29T19:26:41.269Z,85.73
2022-10-29T19:28:44.073Z,85.76
2022-10-29T19:30:45.584Z,85.89
2022-10-29T19:32:47.114Z,85.82
2022-10-29T19:34:48.586Z,86.00
2022-10-29T19:36:50.052Z,86.81
2022-10-29T19:38:51.660Z,86.44
2022-10-29T19:40:55.956Z,86.17
2022-10-29T19:42:57.392Z,85.48
2022-10-29T19:44:58.822Z,85.49
2022-10-29T19:47:00.322Z,85.39
2022-10-29T19:49:01.773Z,85.26
2022-10-29T19:51:03.459Z,85.20
2022-10-29T19:53:05.587Z,85.04
2022-10-29T19:55:07.769Z,85.16
2022-10-29T19:57:09.241Z,85.07
2022-10-29T19:59:10.732Z,85.01
2022-10-29T20:01:15.947Z,85.76
2022-10-29T20:03:18.770Z,85.45
2022-10-29T20:05:21.037Z,85.49
2022-10-29T20:07:22.541Z,85.73
2022-10-29T20:09:24.110Z,85.59
2022-10-29T20:11:25.588Z,85.55
2022-10-29T20:13:27.681Z,85.29
2022-10-29T20:15:29.486Z,85.13
2022-10-29T20:17:31.484Z,85.10
2022-10-29T20:19:32.948Z,85.19
2022-10-29T20:21:34.409Z,85.01
2022-10-29T20:23:36.218Z,84.90
2022-10-29T20:25:37.947Z,84.97
2022-10-29T20:27:39.523Z,85.38
2022-10-29T20:29:41.099Z,85.36
2022-10-29T20:31:42.516Z,85.37
2022-10-29T20:33:57.894Z,85.04
2022-10-29T20:35:59.368Z,85.05
2022-10-29T20:38:01.143Z,85.08
2022-10-29T20:40:02.956Z,86.35
2022-10-29T20:42:04.422Z,86.97
2022-10-29T20:44:05.882Z,86.65
2022-10-29T20:46:07.308Z,85.97
2022-10-29T20:48:08.747Z,85.60
2022-10-29T20:50:10.210Z,85.75
2022-10-29T20:52:11.685Z,85.51
2022-10-29T20:54:13.129Z,85.43
2022-10-29T20:56:16.347Z,85.44
2022-10-29T20:58:20.048Z,85.29
2022-10-29T21:00:21.685Z,85.25
2022-10-29T21:02:23.297Z,85.50
2022-10-29T21:04:24.849Z,85.79
2022-10-29T21:06:26.624Z,86.11
2022-10-29T21:10:35.158Z,86.84
2022-10-29T21:12:36.613Z,86.87
2022-10-29T21:14:38.064Z,86.41
2022-10-29T21:16:39.663Z,86.40
2022-10-29T21:18:42.479Z,86.07
2022-10-29T21:20:43.928Z,85.47
2022-10-29T21:22:45.349Z,85.41
2022-10-29T21:24:46.798Z,85.44
2022-10-29T21:26:48.203Z,85.42
2022-10-29T21:28:51.179Z,85.09
2022-10-29T21:30:53.253Z,85.09
2022-10-29T21:32:55.278Z,85.11
2022-10-29T21:34:56.699Z,84.94
2022-10-29T21:36:58.178Z,84.74
2022-10-29T21:38:59.661Z,84.86
2022-10-29T21:41:04.288Z,84.89
2022-10-29T21:43:05.817Z,85.06
2022-10-29T21:45:07.493Z,85.17
2022-10-29T21:47:09.022Z,85.25
2022-10-29T21:49:10.440Z,85.28
2022-10-29T21:51:14.053Z,86.02
2022-10-29T21:55:22.129Z,86.66
2022-10-29T21:57:23.566Z,87.55
2022-10-29T21:59:25.026Z,87.62
2022-10-29T22:01:26.621Z,87.59
2022-10-29T22:03:30.505Z,87.60
2022-10-29T22:05:32.002Z,86.70
2022-10-29T22:07:34.652Z,86.17
2022-10-29T22:09:36.098Z,85.49
2022-10-29T22:11:37.581Z,86.07
2022-10-29T22:13:39.379Z,86.38
2022-10-29T22:15:40.824Z,86.21
2022-10-29T22:17:42.256Z,87.04
2022-10-29T22:19:43.718Z,87.21
2022-10-29T22:21:46.229Z,87.40
2022-10-29T22:23:50.804Z,88.13
2022-10-29T22:25:52.270Z,88.58
2022-10-29T22:27:53.859Z,90.06
2022-10-29T22:29:55.302Z,91.07
2022-10-29T22:31:56.870Z,92.30
2022-10-29T22:33:58.296Z,92.72
2022-10-29T22:36:10.044Z,93.03
2022-10-29T22:38:11.461Z,93.30
2022-10-29T22:40:12.931Z,93.13
2022-10-29T22:42:14.383Z,91.96
2022-10-29T22:44:15.878Z,91.56
2022-10-29T22:46:19.137Z,90.30
2022-10-29T22:48:20.591Z,89.28
2022-10-29T22:50:22.156Z,88.26
2022-10-29T22:52:23.597Z,88.18
2022-10-29T22:54:25.069Z,88.44
2022-10-29T22:56:29.076Z,88.24
2022-10-29T22:58:31.221Z,87.95
2022-10-29T23:00:32.663Z,88.56
2022-10-29T23:02:34.138Z,88.25
2022-10-29T23:04:35.698Z,87.91
2022-10-29T23:06:37.138Z,87.66
2022-10-29T23:08:38.769Z,86.64
2022-10-29T23:10:40.240Z,86.79
2022-10-29T23:12:41.646Z,86.82
2022-10-29T23:14:43.110Z,86.31
2022-10-29T23:16:44.530Z,86.11
2022-10-29T23:18:50.414Z,86.00
2022-10-29T23:21:01.737Z,85.81
2022-10-29T23:23:03.185Z,86.00
2022-10-29T23:25:04.958Z,86.08
2022-10-29T23:27:06.398Z,85.88
2022-10-29T23:29:07.821Z,86.37
2022-10-29T23:31:15.506Z,86.61
2022-10-29T23:33:16.938Z,86.91
2022-10-29T23:35:18.415Z,87.95
2022-10-29T23:37:19.841Z,88.46
2022-10-29T23:39:21.252Z,88.74
2022-10-29T23:41:22.820Z,89.35
2022-10-29T23:43:24.546Z,89.73
2022-10-29T23:45:25.985Z,90.90
2022-10-29T23:47:27.411Z,91.70
2022-10-29T23:49:28.840Z,90.38
2022-10-29T23:51:30.373Z,90.08
2022-10-29T23:53:31.881Z,90.78
2022-10-29T23:55:34.128Z,91.42
2022-10-29T23:57:35.613Z,92.41
2022-10-29T23:59:37.044Z,92.62
